createdAt,value
2017-04-26T00:00:12.424Z,0
2017-04-26T00:00:52.945Z,0
2017-04-26T00:01:33.474Z,0
2017-04-26T00:02:13.990Z,0
2017-04-26T00:02:54.505Z,0
2017-04-26T00:03:35.019Z,0
2017-04-26T00:04:15.538Z,0
2017-04-26T00:04:56.055Z,0
2017-04-26T00:05:36.572Z,0
2017-04-26T00:06:17.108Z,0
2017-04-26T00:06:57.637Z,0
2017-04-26T00:07:38.177Z,0
2017-04-26T00:08:18.701Z,0
2017-04-26T00:08:59.223Z,0
2017-04-26T00:09:39.743Z,0
2017-04-26T00:10:20.267Z,0
2017-04-26T00:11:00.790Z,0
2017-04-26T00:11:41.317Z,0
2017-04-26T00:12:21.830Z,0
2017-04-26T00:13:02.348Z,0
2017-04-26T00:13:42.865Z,0
2017-04-26T00:14:23.381Z,0
2017-04-26T00:15:03.913Z,0
2017-04-26T00:15:44.431Z,0
2017-04-26T00:16:24.951Z,0
2017-04-26T00:17:05.490Z,0
2017-04-26T00:17:46.007Z,0
2017-04-26T00:18:26.521Z,0
2017-04-26T00:19:07.037Z,0
2017-04-26T00:19:47.562Z,0
2017-04-26T00:20:28.074Z,0
2017-04-26T00:21:08.599Z,0
2017-04-26T00:21:49.115Z,0
2017-04-26T00:22:29.645Z,0
2017-04-26T00:23:10.175Z,0
2017-04-26T00:23:50.697Z,0
2017-04-26T00:24:31.222Z,0
2017-04-26T00:25:11.755Z,0
2017-04-26T00:25:52.281Z,0
2017-04-26T00:26:32.800Z,0
2017-04-26T00:27:13.323Z,0
2017-04-26T00:27:53.843Z,0
2017-04-26T00:28:34.358Z,0
2017-04-26T00:29:14.875Z,0
2017-04-26T00:29:55.393Z,0
2017-04-26T00:30:35.926Z,0
2017-04-26T00:31:16.444Z,0
2017-04-26T00:31:56.960Z,0
2017-04-26T00:32:37.477Z,0
2017-04-26T00:33:17.999Z,0
2017-04-26T00:33:58.509Z,0
2017-04-26T00:34:39.026Z,0
2017-04-26T00:35:19.558Z,0
2017-04-26T00:36:00.060Z,0
2017-04-26T00:36:40.575Z,0
2017-04-26T00:37:21.095Z,0
2017-04-26T00:38:01.610Z,0
2017-04-26T00:38:42.147Z,0
2017-04-26T00:39:22.666Z,0
2017-04-26T00:40:03.186Z,0
2017-04-26T00:40:43.710Z,0
2017-04-26T00:41:24.233Z,0
2017-04-26T00:42:04.763Z,0
2017-04-26T00:42:45.274Z,0
2017-04-26T00:43:25.793Z,0
2017-04-26T00:44:06.327Z,0
2017-04-26T00:44:46.846Z,0
2017-04-26T00:45:27.367Z,0
2017-04-26T00:46:07.906Z,0
2017-04-26T00:46:48.429Z,0
2017-04-26T00:47:28.942Z,0
2017-04-26T00:48:09.459Z,0
2017-04-26T00:48:49.989Z,0
2017-04-26T00:49:30.503Z,0
2017-04-26T00:50:11.023Z,0
2017-04-26T00:50:51.540Z,0
2017-04-26T00:51:32.066Z,0
2017-04-26T00:52:12.582Z,0
2017-04-26T00:52:53.109Z,0
2017-04-26T00:53:33.631Z,0
2017-04-26T00:54:14.154Z,0
2017-04-26T00:54:54.683Z,0
2017-04-26T00:55:35.213Z,0
2017-04-26T00:56:15.744Z,0
2017-04-26T00:56:56.260Z,0
2017-04-26T00:57:36.779Z,0
2017-04-26T00:58:17.294Z,0
2017-04-26T00:58:57.815Z,0
2017-04-26T00:59:38.367Z,0
2017-04-26T01:00:18.884Z,0
2017-04-26T01:00:59.423Z,0
2017-04-26T01:01:39.947Z,0
2017-04-26T01:02:20.451Z,0
2017-04-26T01:03:00.961Z,0
2017-04-26T01:03:41.479Z,0
2017-04-26T01:04:21.999Z,0
2017-04-26T01:05:02.516Z,0
2017-04-26T01:05:43.023Z,0
2017-04-26T01:06:23.567Z,0
2017-04-26T01:07:04.082Z,0
2017-04-26T01:07:44.605Z,0
2017-04-26T01:08:25.128Z,0
2017-04-26T01:09:05.654Z,0
2017-04-26T01:09:46.175Z,0
2017-04-26T01:10:26.702Z,0
2017-04-26T01:11:07.231Z,0
2017-04-26T01:11:47.742Z,0
2017-04-26T01:12:28.262Z,0
2017-04-26T01:13:08.781Z,0
2017-04-26T01:13:49.300Z,0
2017-04-26T01:14:29.855Z,0
2017-04-26T01:15:10.349Z,0
2017-04-26T01:15:50.879Z,0
2017-04-26T01:16:31.391Z,0
2017-04-26T01:17:11.903Z,0
2017-04-26T01:17:52.422Z,0
2017-04-26T01:18:32.945Z,0
2017-04-26T01:19:13.461Z,0
2017-04-26T01:19:53.969Z,0
2017-04-26T01:20:34.494Z,0
2017-04-26T01:21:15.014Z,0
2017-04-26T01:21:55.549Z,0
2017-04-26T01:22:36.077Z,0
2017-04-26T01:23:16.594Z,0
2017-04-26T01:23:57.110Z,0
2017-04-26T01:24:37.625Z,0
2017-04-26T01:25:18.146Z,0
2017-04-26T01:25:58.661Z,0
2017-04-26T01:26:39.183Z,0
2017-04-26T01:27:19.701Z,0
2017-04-26T01:28:00.216Z,0
2017-04-26T01:28:40.731Z,0
2017-04-26T01:29:21.250Z,0
2017-04-26T01:30:01.758Z,0
2017-04-26T01:30:42.272Z,0
2017-04-26T01:31:22.793Z,0
2017-04-26T01:32:03.307Z,0
2017-04-26T01:32:43.829Z,0
2017-04-26T01:33:24.355Z,0
2017-04-26T01:34:04.887Z,0
2017-04-26T01:34:45.400Z,0
2017-04-26T01:35:25.921Z,0
2017-04-26T01:36:06.436Z,0
2017-04-26T01:36:46.954Z,0
2017-04-26T01:37:27.473Z,0
2017-04-26T01:38:07.990Z,0
2017-04-26T01:38:48.518Z,0
2017-04-26T01:39:29.035Z,0
2017-04-26T01:40:09.552Z,0
2017-04-26T01:40:50.068Z,0
2017-04-26T01:41:30.597Z,0
2017-04-26T01:42:11.115Z,0
2017-04-26T01:42:51.633Z,0
2017-04-26T01:43:32.148Z,0
2017-04-26T01:44:12.668Z,0
2017-04-26T01:44:53.222Z,0
2017-04-26T01:45:33.737Z,0
2017-04-26T01:46:14.257Z,0
2017-04-26T01:46:54.795Z,0
2017-04-26T01:47:35.301Z,0
2017-04-26T01:48:15.816Z,0
2017-04-26T01:48:56.341Z,0
2017-04-26T01:49:36.864Z,0
2017-04-26T01:50:17.384Z,0
2017-04-26T01:50:57.898Z,0
2017-04-26T01:51:38.416Z,0
2017-04-26T01:52:18.942Z,0
2017-04-26T01:52:59.461Z,0
2017-04-26T01:53:39.984Z,0
2017-04-26T01:54:20.505Z,0
2017-04-26T01:55:01.033Z,0
2017-04-26T01:55:41.557Z,0
2017-04-26T01:56:22.081Z,0
2017-04-26T01:57:02.610Z,0
2017-04-26T01:57:43.118Z,0
2017-04-26T01:58:23.635Z,0
2017-04-26T01:59:04.153Z,0
2017-04-26T01:59:44.678Z,0
2017-04-26T02:00:25.188Z,0
2017-04-26T02:01:05.715Z,0
2017-04-26T02:01:46.237Z,0
2017-04-26T02:02:26.756Z,0
2017-04-26T02:03:07.278Z,0
2017-04-26T02:03:47.792Z,0
2017-04-26T02:04:28.312Z,0
2017-04-26T02:05:08.810Z,0
2017-04-26T02:05:49.321Z,0
2017-04-26T02:06:29.824Z,0
2017-04-26T02:07:10.327Z,0
2017-04-26T02:07:50.891Z,0
2017-04-26T02:08:31.375Z,0
2017-04-26T02:09:11.904Z,0
2017-04-26T02:09:52.413Z,0
2017-04-26T02:10:32.935Z,0
2017-04-26T02:11:13.450Z,0
2017-04-26T02:11:53.966Z,0
2017-04-26T02:12:34.490Z,0
2017-04-26T02:13:15.009Z,0
2017-04-26T02:13:55.528Z,0
2017-04-26T02:14:36.044Z,0
2017-04-26T02:15:16.567Z,0
2017-04-26T02:15:57.089Z,0
2017-04-26T02:16:37.603Z,0
2017-04-26T02:17:18.116Z,0
2017-04-26T02:17:58.630Z,0
2017-04-26T02:18:39.156Z,0
2017-04-26T02:19:19.668Z,0
2017-04-26T02:20:00.219Z,0
2017-04-26T02:20:40.735Z,0
2017-04-26T02:21:21.262Z,0
2017-04-26T02:22:01.777Z,0
2017-04-26T02:22:42.292Z,0
2017-04-26T02:23:22.801Z,0
2017-04-26T02:24:03.314Z,0
2017-04-26T02:24:43.849Z,0
2017-04-26T02:25:24.362Z,0
2017-04-26T02:26:04.888Z,0
2017-04-26T02:26:45.413Z,0
2017-04-26T02:27:25.944Z,0
2017-04-26T02:28:06.456Z,0
2017-04-26T02:28:46.979Z,0
2017-04-26T02:29:27.502Z,0
2017-04-26T02:30:08.018Z,0
2017-04-26T02:30:48.541Z,0
2017-04-26T02:31:29.064Z,0
2017-04-26T02:32:09.576Z,0
2017-04-26T02:32:50.096Z,0
2017-04-26T02:33:30.623Z,0
2017-04-26T02:34:11.132Z,0
2017-04-26T02:34:51.653Z,0
2017-04-26T02:35:32.176Z,0
2017-04-26T02:36:12.692Z,0
2017-04-26T02:36:53.201Z,0
2017-04-26T02:37:33.720Z,0
2017-04-26T02:38:14.230Z,0
2017-04-26T02:38:54.752Z,0
2017-04-26T02:39:35.269Z,0
2017-04-26T02:40:15.792Z,0
2017-04-26T02:40:56.312Z,0
2017-04-26T02:41:36.834Z,0
2017-04-26T02:42:17.355Z,0
2017-04-26T02:42:57.881Z,0
2017-04-26T02:43:38.402Z,0
2017-04-26T02:44:18.926Z,0
2017-04-26T02:44:59.447Z,0
2017-04-26T02:45:39.975Z,0
2017-04-26T02:46:20.491Z,0
2017-04-26T02:47:01.012Z,0
2017-04-26T02:47:41.541Z,0
2017-04-26T02:48:22.062Z,0
2017-04-26T02:49:02.580Z,0
2017-04-26T02:49:43.095Z,0
2017-04-26T02:50:23.610Z,0
2017-04-26T02:51:04.127Z,0
2017-04-26T02:51:44.655Z,0
2017-04-26T02:52:25.168Z,0
2017-04-26T02:53:05.692Z,0
2017-04-26T02:53:46.214Z,0
2017-04-26T02:54:26.737Z,0
2017-04-26T02:55:07.244Z,0
2017-04-26T02:55:47.766Z,0
2017-04-26T02:56:28.297Z,0
2017-04-26T02:57:08.819Z,0
2017-04-26T02:57:49.332Z,0
2017-04-26T02:58:29.867Z,0
2017-04-26T02:59:10.386Z,0
2017-04-26T02:59:50.908Z,0
2017-04-26T03:00:31.428Z,0
2017-04-26T03:01:11.944Z,0
2017-04-26T03:01:52.468Z,0
2017-04-26T03:02:32.986Z,0
2017-04-26T03:03:13.503Z,0
2017-04-26T03:03:54.042Z,0
2017-04-26T03:04:34.555Z,0
2017-04-26T03:05:15.073Z,0
2017-04-26T03:05:55.589Z,0
2017-04-26T03:06:36.108Z,0
2017-04-26T03:07:16.625Z,0
2017-04-26T03:07:57.145Z,0
2017-04-26T03:08:37.653Z,0
2017-04-26T03:09:18.179Z,0
2017-04-26T03:09:58.695Z,0
2017-04-26T03:10:39.236Z,0
2017-04-26T03:11:19.759Z,0
2017-04-26T03:12:00.284Z,0
2017-04-26T03:12:40.799Z,0
2017-04-26T03:13:21.315Z,0
2017-04-26T03:14:01.833Z,0
2017-04-26T03:14:42.353Z,0
2017-04-26T03:15:22.874Z,0
2017-04-26T03:16:03.401Z,0
2017-04-26T03:16:43.913Z,0
2017-04-26T03:17:24.422Z,0
2017-04-26T03:18:04.929Z,0
2017-04-26T03:18:45.450Z,0
2017-04-26T03:19:25.972Z,0
2017-04-26T03:20:06.486Z,0
2017-04-26T03:20:47.009Z,0
2017-04-26T03:21:27.528Z,0
2017-04-26T03:22:08.053Z,0
2017-04-26T03:22:48.568Z,0
2017-04-26T03:23:29.097Z,0
2017-04-26T03:24:09.636Z,0
2017-04-26T03:24:50.155Z,0
2017-04-26T03:25:30.667Z,0
2017-04-26T03:26:11.181Z,0
2017-04-26T03:26:51.697Z,0
2017-04-26T03:27:32.223Z,0
2017-04-26T03:28:12.742Z,0
2017-04-26T03:28:53.259Z,0
2017-04-26T03:29:33.779Z,0
2017-04-26T03:30:14.303Z,0
2017-04-26T03:30:54.836Z,0
2017-04-26T03:31:35.354Z,0
2017-04-26T03:32:15.920Z,0
2017-04-26T03:32:56.433Z,0
2017-04-26T03:33:36.970Z,0
2017-04-26T03:34:17.491Z,0
2017-04-26T03:34:58.003Z,0
2017-04-26T03:35:38.524Z,0
2017-04-26T03:36:19.055Z,0
2017-04-26T03:36:59.581Z,0
2017-04-26T03:37:40.097Z,0
2017-04-26T03:38:20.620Z,0
2017-04-26T03:39:01.141Z,0
2017-04-26T03:39:41.664Z,0
2017-04-26T03:40:22.185Z,0
2017-04-26T03:41:02.708Z,0
2017-04-26T03:41:43.237Z,0
2017-04-26T03:42:23.762Z,0
2017-04-26T03:43:04.281Z,0
2017-04-26T03:43:44.793Z,0
2017-04-26T03:44:25.318Z,0
2017-04-26T03:45:05.829Z,0
2017-04-26T03:45:46.364Z,0
2017-04-26T03:46:26.880Z,0
2017-04-26T03:47:07.395Z,0
2017-04-26T03:47:47.920Z,0
2017-04-26T03:48:28.441Z,0
2017-04-26T03:49:08.950Z,0
2017-04-26T03:49:49.480Z,0
2017-04-26T03:50:29.993Z,0
2017-04-26T03:51:10.518Z,0
2017-04-26T03:51:51.044Z,0
2017-04-26T03:52:31.565Z,0
2017-04-26T03:53:12.087Z,0
2017-04-26T03:53:52.592Z,0
2017-04-26T03:54:33.111Z,0
2017-04-26T03:55:13.633Z,0
2017-04-26T03:55:54.149Z,0
2017-04-26T03:56:34.668Z,0
2017-04-26T03:57:15.197Z,0
2017-04-26T03:57:55.720Z,0
2017-04-26T03:58:36.245Z,0
2017-04-26T03:59:16.762Z,0
2017-04-26T03:59:57.274Z,0
2017-04-26T04:00:37.837Z,0
2017-04-26T04:01:18.360Z,0
2017-04-26T04:01:58.873Z,0
2017-04-26T04:02:39.403Z,0
2017-04-26T04:03:19.951Z,0
2017-04-26T04:04:00.441Z,0
2017-04-26T04:04:40.956Z,0
2017-04-26T04:05:21.472Z,0
2017-04-26T04:06:01.994Z,0
2017-04-26T04:06:42.510Z,0
2017-04-26T04:07:23.034Z,0
2017-04-26T04:08:03.546Z,0
2017-04-26T04:08:44.060Z,0
2017-04-26T04:09:24.578Z,0
2017-04-26T04:10:05.101Z,0
2017-04-26T04:10:45.615Z,0
2017-04-26T04:11:26.126Z,0
2017-04-26T04:12:06.646Z,0
2017-04-26T04:12:47.164Z,0
2017-04-26T04:13:27.695Z,0
2017-04-26T04:14:08.216Z,0
2017-04-26T04:14:48.753Z,0
2017-04-26T04:15:29.268Z,0
2017-04-26T04:16:09.791Z,0
2017-04-26T04:16:50.316Z,0
2017-04-26T04:17:30.841Z,0
2017-04-26T04:18:11.361Z,0
2017-04-26T04:18:51.898Z,0
2017-04-26T04:19:32.420Z,0
2017-04-26T04:20:12.934Z,0
2017-04-26T04:20:53.460Z,0
2017-04-26T04:21:33.991Z,0
2017-04-26T04:22:14.509Z,0
2017-04-26T04:22:55.042Z,0
2017-04-26T04:23:35.555Z,0
2017-04-26T04:24:16.076Z,0
2017-04-26T04:24:56.597Z,0
2017-04-26T04:25:37.108Z,0
2017-04-26T04:26:17.622Z,0
2017-04-26T04:26:58.132Z,0
2017-04-26T04:27:38.652Z,0
2017-04-26T04:28:19.179Z,0
2017-04-26T04:28:59.695Z,0
2017-04-26T04:29:40.218Z,0
2017-04-26T04:30:20.737Z,0
2017-04-26T04:31:01.257Z,0
2017-04-26T04:31:41.773Z,0
2017-04-26T04:32:22.301Z,0
2017-04-26T04:33:02.818Z,0
2017-04-26T04:33:43.332Z,0
2017-04-26T04:34:23.844Z,0
2017-04-26T04:35:04.355Z,0
2017-04-26T04:35:44.871Z,0
2017-04-26T04:36:25.397Z,0
2017-04-26T04:37:05.914Z,5
2017-04-26T04:37:46.429Z,5
2017-04-26T04:38:26.954Z,5
2017-04-26T04:39:07.553Z,5
2017-04-26T04:39:48.062Z,5
2017-04-26T04:40:28.575Z,5
2017-04-26T04:41:09.090Z,5
2017-04-26T04:41:49.612Z,5
2017-04-26T04:42:30.117Z,5
2017-04-26T04:43:10.636Z,5
2017-04-26T04:43:51.164Z,5
2017-04-26T04:44:31.683Z,5
2017-04-26T04:45:12.195Z,5
2017-04-26T04:45:52.723Z,5
2017-04-26T04:46:33.309Z,5
2017-04-26T04:47:13.746Z,10
2017-04-26T04:47:54.267Z,10
2017-04-26T04:48:34.774Z,10
2017-04-26T04:49:15.306Z,10
2017-04-26T04:49:55.811Z,10
2017-04-26T04:50:36.331Z,10
2017-04-26T04:51:16.843Z,10
2017-04-26T04:51:57.361Z,10
2017-04-26T04:52:37.881Z,10
2017-04-26T04:53:18.396Z,10
2017-04-26T04:53:58.938Z,10
2017-04-26T04:54:39.446Z,10
2017-04-26T04:55:19.963Z,15
2017-04-26T04:56:00.477Z,15
2017-04-26T04:56:41.012Z,15
2017-04-26T04:57:21.526Z,15
2017-04-26T04:58:02.056Z,15
2017-04-26T04:58:42.595Z,15
2017-04-26T04:59:23.128Z,20
2017-04-26T05:00:03.634Z,20
2017-04-26T05:00:44.168Z,20
2017-04-26T05:01:24.690Z,20
2017-04-26T05:02:05.192Z,20
2017-04-26T05:02:45.707Z,20
2017-04-26T05:03:26.217Z,20
2017-04-26T05:04:06.746Z,20
2017-04-26T05:04:47.254Z,20
2017-04-26T05:05:27.771Z,20
2017-04-26T05:06:08.286Z,20
2017-04-26T05:06:48.813Z,15
2017-04-26T05:07:29.337Z,15
2017-04-26T05:08:09.876Z,15
2017-04-26T05:08:50.382Z,15
2017-04-26T05:09:30.918Z,15
2017-04-26T05:10:11.454Z,15
2017-04-26T05:10:51.973Z,15
2017-04-26T05:11:32.566Z,15
2017-04-26T05:12:13.090Z,15
2017-04-26T05:12:53.594Z,15
2017-04-26T05:13:34.109Z,15
2017-04-26T05:14:14.726Z,15
2017-04-26T05:14:55.234Z,15
2017-04-26T05:15:35.737Z,15
2017-04-26T05:16:16.257Z,20
2017-04-26T05:16:56.766Z,20
2017-04-26T05:17:37.294Z,20
2017-04-26T05:18:17.813Z,20
2017-04-26T05:18:58.326Z,20
2017-04-26T05:19:38.843Z,20
2017-04-26T05:20:19.365Z,15
2017-04-26T05:20:59.883Z,15
2017-04-26T05:21:40.393Z,15
2017-04-26T05:22:20.921Z,15
2017-04-26T05:23:01.452Z,15
2017-04-26T05:23:41.970Z,15
2017-04-26T05:24:22.481Z,15
2017-04-26T05:25:03.001Z,15
2017-04-26T05:25:43.526Z,20
2017-04-26T05:26:24.037Z,20
2017-04-26T05:27:04.564Z,25
2017-04-26T05:27:45.089Z,25
2017-04-26T05:28:25.723Z,30
2017-04-26T05:29:06.128Z,30
2017-04-26T05:29:46.636Z,35
2017-04-26T05:30:27.150Z,35
2017-04-26T05:31:07.671Z,40
2017-04-26T05:31:48.188Z,40
2017-04-26T05:32:28.710Z,40
2017-04-26T05:33:09.234Z,40
2017-04-26T05:33:49.766Z,45
2017-04-26T05:34:30.271Z,45
2017-04-26T05:35:10.778Z,45
2017-04-26T05:35:51.936Z,45
2017-04-26T05:36:32.425Z,50
2017-04-26T05:37:12.942Z,50
2017-04-26T05:37:53.440Z,50
2017-04-26T05:38:33.965Z,50
2017-04-26T05:39:14.495Z,50
2017-04-26T05:39:55.013Z,50
2017-04-26T05:40:35.542Z,50
2017-04-26T05:41:16.066Z,50
2017-04-26T05:41:56.592Z,55
2017-04-26T05:42:37.111Z,55
2017-04-26T05:43:17.625Z,60
2017-04-26T05:43:58.138Z,60
2017-04-26T05:44:38.678Z,60
2017-04-26T05:45:19.188Z,60
2017-04-26T05:45:59.826Z,60
2017-04-26T05:46:40.253Z,60
2017-04-26T05:47:20.786Z,60
2017-04-26T05:48:01.306Z,60
2017-04-26T05:48:41.798Z,60
2017-04-26T05:49:22.348Z,60
2017-04-26T05:50:02.867Z,55
2017-04-26T05:50:43.380Z,55
2017-04-26T05:51:23.921Z,55
2017-04-26T05:52:04.439Z,55
2017-04-26T05:52:44.969Z,55
2017-04-26T05:53:25.483Z,55
2017-04-26T05:54:05.998Z,60
2017-04-26T05:54:46.520Z,60
2017-04-26T05:55:27.030Z,60
2017-04-26T05:56:07.551Z,65
2017-04-26T05:56:48.073Z,65
2017-04-26T05:57:28.580Z,70
2017-04-26T05:58:09.097Z,75
2017-04-26T05:58:49.619Z,75
2017-04-26T05:59:30.134Z,75
2017-04-26T06:00:10.660Z,75
2017-04-26T06:00:51.184Z,75
2017-04-26T06:01:31.687Z,75
2017-04-26T06:02:12.539Z,80
2017-04-26T06:02:53.063Z,85
2017-04-26T06:03:33.679Z,85
2017-04-26T06:04:14.191Z,85
2017-04-26T06:04:54.697Z,90
2017-04-26T06:05:35.257Z,90
2017-04-26T06:06:15.776Z,90
2017-04-26T06:06:56.307Z,90
2017-04-26T06:07:36.829Z,90
2017-04-26T06:08:17.351Z,95
2017-04-26T06:08:57.871Z,105
2017-04-26T06:09:38.390Z,105
2017-04-26T06:10:18.911Z,115
2017-04-26T06:10:59.431Z,115
2017-04-26T06:11:39.946Z,120
2017-04-26T06:12:20.482Z,140
2017-04-26T06:13:01.055Z,145
2017-04-26T06:13:41.531Z,145
2017-04-26T06:14:22.045Z,140
2017-04-26T06:15:02.561Z,130
2017-04-26T06:15:43.110Z,125
2017-04-26T06:16:23.612Z,120
2017-04-26T06:17:04.127Z,115
2017-04-26T06:17:44.650Z,115
2017-04-26T06:18:25.174Z,115
2017-04-26T06:19:05.691Z,115
2017-04-26T06:19:46.214Z,115
2017-04-26T06:20:26.729Z,115
2017-04-26T06:21:07.250Z,120
2017-04-26T06:21:47.772Z,125
2017-04-26T06:22:28.333Z,125
2017-04-26T06:23:08.851Z,130
2017-04-26T06:23:50.330Z,135
2017-04-26T06:24:30.573Z,135
2017-04-26T06:25:11.109Z,135
2017-04-26T06:25:51.621Z,135
2017-04-26T06:26:32.142Z,135
2017-04-26T06:27:12.710Z,135
2017-04-26T06:27:53.236Z,135
2017-04-26T06:28:33.758Z,140
2017-04-26T06:29:14.276Z,135
2017-04-26T06:29:54.800Z,135
2017-04-26T06:30:35.315Z,130
2017-04-26T06:31:15.852Z,125
2017-04-26T06:31:56.378Z,125
2017-04-26T06:32:36.896Z,130
2017-04-26T06:33:17.425Z,125
2017-04-26T06:33:57.948Z,125
2017-04-26T06:34:38.561Z,120
2017-04-26T06:35:19.076Z,125
2017-04-26T06:35:59.606Z,120
2017-04-26T06:36:40.230Z,125
2017-04-26T06:37:20.595Z,130
2017-04-26T06:38:01.135Z,125
2017-04-26T06:38:41.648Z,125
2017-04-26T06:39:22.182Z,125
2017-04-26T06:40:02.704Z,125
2017-04-26T06:40:43.217Z,130
2017-04-26T06:41:23.737Z,130
2017-04-26T06:42:04.271Z,130
2017-04-26T06:42:44.800Z,135
2017-04-26T06:43:25.313Z,135
2017-04-26T06:44:05.837Z,140
2017-04-26T06:44:46.352Z,135
2017-04-26T06:45:26.863Z,135
2017-04-26T06:46:07.390Z,135
2017-04-26T06:46:47.894Z,135
2017-04-26T06:47:28.408Z,135
2017-04-26T06:48:08.933Z,135
2017-04-26T06:48:49.450Z,135
2017-04-26T06:49:29.976Z,140
2017-04-26T06:50:10.503Z,140
2017-04-26T06:50:51.049Z,140
2017-04-26T06:51:31.538Z,140
2017-04-26T06:52:12.086Z,140
2017-04-26T06:52:52.595Z,135
2017-04-26T06:53:33.101Z,135
2017-04-26T06:54:13.631Z,130
2017-04-26T06:54:54.153Z,125
2017-04-26T06:55:34.658Z,125
2017-04-26T06:56:15.198Z,125
2017-04-26T06:56:55.713Z,130
2017-04-26T06:57:36.241Z,130
2017-04-26T06:58:16.775Z,135
2017-04-26T06:58:57.311Z,135
2017-04-26T06:59:37.844Z,135
2017-04-26T07:00:18.492Z,140
2017-04-26T07:00:58.958Z,150
2017-04-26T07:01:39.458Z,150
2017-04-26T07:02:19.976Z,155
2017-04-26T07:03:00.496Z,160
2017-04-26T07:03:41.016Z,170
2017-04-26T07:04:21.529Z,175
2017-04-26T07:05:02.049Z,180
2017-04-26T07:05:42.568Z,185
2017-04-26T07:06:23.087Z,185
2017-04-26T07:07:03.602Z,190
2017-04-26T07:07:44.120Z,190
2017-04-26T07:08:24.653Z,190
2017-04-26T07:09:05.207Z,190
2017-04-26T07:09:45.727Z,190
2017-04-26T07:10:26.240Z,190
2017-04-26T07:11:06.764Z,185
2017-04-26T07:11:47.276Z,185
2017-04-26T07:12:27.792Z,185
2017-04-26T07:13:08.307Z,185
2017-04-26T07:13:48.834Z,190
2017-04-26T07:14:29.389Z,195
2017-04-26T07:15:09.870Z,200
2017-04-26T07:15:50.397Z,200
2017-04-26T07:16:30.912Z,210
2017-04-26T07:17:11.426Z,210
2017-04-26T07:17:51.931Z,215
2017-04-26T07:18:32.453Z,215
2017-04-26T07:19:12.976Z,220
2017-04-26T07:19:53.512Z,215
2017-04-26T07:20:34.036Z,220
2017-04-26T07:21:14.559Z,225
2017-04-26T07:21:55.080Z,230
2017-04-26T07:22:35.611Z,240
2017-04-26T07:23:16.141Z,240
2017-04-26T07:23:56.650Z,250
2017-04-26T07:24:37.202Z,260
2017-04-26T07:25:17.720Z,265
2017-04-26T07:25:58.234Z,265
2017-04-26T07:26:38.754Z,270
2017-04-26T07:27:19.302Z,270
2017-04-26T07:27:59.805Z,270
2017-04-26T07:28:40.384Z,275
2017-04-26T07:29:20.896Z,270
2017-04-26T07:30:01.418Z,270
2017-04-26T07:30:41.933Z,275
2017-04-26T07:31:22.458Z,270
2017-04-26T07:32:02.979Z,270
2017-04-26T07:32:43.498Z,270
2017-04-26T07:33:24.046Z,265
2017-04-26T07:34:04.581Z,265
2017-04-26T07:34:45.119Z,265
2017-04-26T07:35:25.663Z,265
2017-04-26T07:36:06.178Z,270
2017-04-26T07:36:46.699Z,285
2017-04-26T07:37:27.230Z,285
2017-04-26T07:38:07.744Z,295
2017-04-26T07:38:48.259Z,305
2017-04-26T07:39:28.773Z,315
2017-04-26T07:40:09.315Z,325
2017-04-26T07:40:49.823Z,320
2017-04-26T07:41:30.399Z,310
2017-04-26T07:42:10.909Z,315
2017-04-26T07:42:51.454Z,310
2017-04-26T07:43:31.977Z,315
2017-04-26T07:44:12.492Z,315
2017-04-26T07:44:53.011Z,300
2017-04-26T07:45:33.538Z,310
2017-04-26T07:46:14.057Z,300
2017-04-26T07:46:54.572Z,290
2017-04-26T07:47:35.103Z,285
2017-04-26T07:48:15.620Z,270
2017-04-26T07:48:56.336Z,260
2017-04-26T07:49:36.911Z,240
2017-04-26T07:50:17.435Z,235
2017-04-26T07:50:57.942Z,235
2017-04-26T07:51:38.467Z,235
2017-04-26T07:52:19.005Z,215
2017-04-26T07:52:59.558Z,200
2017-04-26T07:53:40.094Z,180
2017-04-26T07:54:20.624Z,170
2017-04-26T07:55:01.136Z,150
2017-04-26T07:55:41.659Z,140
2017-04-26T07:56:22.185Z,130
2017-04-26T07:57:02.708Z,115
2017-04-26T07:57:43.235Z,110
2017-04-26T07:58:23.753Z,100
2017-04-26T07:59:04.275Z,95
2017-04-26T07:59:44.798Z,90
2017-04-26T08:00:25.331Z,85
2017-04-26T08:01:05.856Z,85
2017-04-26T08:01:46.371Z,85
2017-04-26T08:02:26.889Z,90
2017-04-26T08:03:07.457Z,95
2017-04-26T08:03:47.977Z,95
2017-04-26T08:04:28.557Z,95
2017-04-26T08:05:09.088Z,100
2017-04-26T08:05:49.604Z,100
2017-04-26T08:06:30.158Z,100
2017-04-26T08:07:10.675Z,100
2017-04-26T08:07:51.194Z,100
2017-04-26T08:08:31.722Z,100
2017-04-26T08:09:12.229Z,100
2017-04-26T08:09:52.746Z,95
2017-04-26T08:10:33.271Z,95
2017-04-26T08:11:13.788Z,95
2017-04-26T08:11:54.308Z,95
2017-04-26T08:12:34.828Z,90
2017-04-26T08:13:15.353Z,90
2017-04-26T08:13:55.882Z,90
2017-04-26T08:14:36.418Z,85
2017-04-26T08:15:16.941Z,85
2017-04-26T08:15:57.465Z,85
2017-04-26T08:16:37.978Z,85
2017-04-26T08:17:18.501Z,90
2017-04-26T08:17:59.009Z,90
2017-04-26T08:18:39.519Z,95
2017-04-26T08:19:20.046Z,95
2017-04-26T08:20:00.569Z,100
2017-04-26T08:20:42.407Z,100
2017-04-26T08:21:21.628Z,100
2017-04-26T08:22:02.171Z,100
2017-04-26T08:22:42.692Z,105
2017-04-26T08:23:23.214Z,100
2017-04-26T08:24:03.737Z,100
2017-04-26T08:24:44.241Z,95
2017-04-26T08:25:24.771Z,95
2017-04-26T08:26:05.303Z,90
2017-04-26T08:26:45.814Z,85
2017-04-26T08:27:26.342Z,80
2017-04-26T08:28:06.863Z,80
2017-04-26T08:28:47.394Z,80
2017-04-26T08:29:27.911Z,80
2017-04-26T08:30:08.436Z,80
2017-04-26T08:30:48.953Z,75
2017-04-26T08:31:29.478Z,70
2017-04-26T08:32:10.007Z,70
2017-04-26T08:32:50.526Z,70
2017-04-26T08:33:31.052Z,70
2017-04-26T08:34:11.574Z,75
2017-04-26T08:34:52.084Z,85
2017-04-26T08:35:32.607Z,100
2017-04-26T08:36:13.122Z,110
2017-04-26T08:36:53.636Z,120
2017-04-26T08:37:34.177Z,125
2017-04-26T08:38:14.667Z,125
2017-04-26T08:38:55.182Z,120
2017-04-26T08:39:35.705Z,115
2017-04-26T08:40:16.221Z,105
2017-04-26T08:42:54.947Z,90
2017-04-26T08:45:34.677Z,90
2017-04-26T08:46:15.203Z,90
2017-04-26T08:46:55.745Z,95
2017-04-26T08:47:36.260Z,105
2017-04-26T08:48:16.782Z,115
2017-04-26T08:48:57.308Z,125
2017-04-26T08:49:37.835Z,130
2017-04-26T08:50:18.794Z,135
2017-04-26T08:50:59.381Z,140
2017-04-26T08:51:39.893Z,145
2017-04-26T08:52:20.417Z,150
2017-04-26T08:53:01.017Z,160
2017-04-26T08:53:41.470Z,170
2017-04-26T08:54:22.006Z,185
2017-04-26T08:55:02.529Z,200
2017-04-26T08:55:43.047Z,205
2017-04-26T08:56:23.609Z,220
2017-04-26T08:57:04.151Z,230
2017-04-26T08:57:44.665Z,240
2017-04-26T08:58:25.187Z,245
2017-04-26T08:59:05.705Z,250
2017-04-26T08:59:46.237Z,255
2017-04-26T09:00:26.758Z,255
2017-04-26T09:01:07.278Z,255
2017-04-26T09:03:35.817Z,255
2017-04-26T09:04:16.338Z,260
2017-04-26T09:04:56.873Z,260
2017-04-26T09:05:37.480Z,260
2017-04-26T09:06:18.087Z,260
2017-04-26T09:06:58.607Z,260
2017-04-26T09:07:39.131Z,270
2017-04-26T09:08:19.647Z,265
2017-04-26T09:09:00.159Z,270
2017-04-26T09:09:40.683Z,275
2017-04-26T09:10:21.197Z,275
2017-04-26T09:11:01.719Z,280
2017-04-26T09:11:42.259Z,275
2017-04-26T09:12:22.789Z,275
2017-04-26T09:13:03.330Z,275
2017-04-26T09:13:43.850Z,265
2017-04-26T09:14:24.380Z,260
2017-04-26T09:15:04.898Z,260
2017-04-26T09:15:45.414Z,255
2017-04-26T09:16:25.929Z,250
2017-04-26T09:17:06.463Z,250
2017-04-26T09:17:46.982Z,250
2017-04-26T09:18:27.500Z,255
2017-04-26T09:19:08.044Z,260
2017-04-26T09:19:48.569Z,260
2017-04-26T09:20:29.124Z,265
2017-04-26T09:22:47.477Z,270
2017-04-26T09:23:28.009Z,265
2017-04-26T09:24:08.521Z,265
2017-04-26T09:24:49.045Z,265
2017-04-26T09:25:29.575Z,260
2017-04-26T09:26:10.091Z,255
2017-04-26T09:26:50.622Z,250
2017-04-26T09:27:31.149Z,245
2017-04-26T09:28:11.664Z,230
2017-04-26T09:28:52.190Z,215
2017-04-26T09:29:32.743Z,205
2017-04-26T09:30:13.235Z,200
2017-04-26T09:30:53.750Z,195
2017-04-26T09:31:34.339Z,195
2017-04-26T09:32:14.823Z,195
2017-04-26T09:32:55.359Z,190
2017-04-26T09:33:35.902Z,190
2017-04-26T09:34:16.427Z,190
2017-04-26T09:34:56.952Z,185
2017-04-26T09:35:37.470Z,180
2017-04-26T09:36:17.995Z,175
2017-04-26T09:36:58.516Z,165
2017-04-26T09:37:39.038Z,155
2017-04-26T09:38:19.556Z,150
2017-04-26T09:39:00.097Z,145
2017-04-26T09:39:40.632Z,135
2017-04-26T09:40:21.186Z,130
2017-04-26T09:41:01.713Z,125
2017-04-26T09:41:42.242Z,115
2017-04-26T09:42:22.765Z,115
2017-04-26T09:43:03.314Z,110
2017-04-26T09:43:43.817Z,110
2017-04-26T09:44:24.367Z,105
2017-04-26T09:45:04.888Z,105
2017-04-26T09:45:45.411Z,105
2017-04-26T09:46:25.929Z,105
2017-04-26T09:47:06.441Z,105
2017-04-26T09:47:46.954Z,105
2017-04-26T09:48:27.478Z,105
2017-04-26T09:49:08.003Z,105